aviador You're here:

OPSK Decoded Metar

SUKKUR in PAKISTAN
Report Time2017-08-16 19:00:00
UTC Time2017-08-16 19:28:34
Flight Rules ifr IFR
Wind180° at 10 kt
W.Decomp.*RWY 14: 7.7 kt HW 6.4 kt RCW
W.Rank180° ranks 3
Current wind is above 180° avg. (7.0)
Visibility4000 m
Phenomena:Haze
Clouds:N/A
Expected CloudBase > 4,000 ft AGL from Temp-Dew spread
CeilingNone
Temp33°C (ISA +18)
Dew Point23°C (56% RH)
Heat Index38.1°C
QNH0997 hPa
Density Alt3,192 ft
Elevation190 ft
Report Wrong Elevation
Raw Report
OPSK 161900Z 18010KT 4000 HZ NSC 33/23 Q0997 NOSIG=

Extra information for OPSK:More info

Metar Taf Metar & Taf Last 4 Metars F.Rules Stats Wind Profile Meteogram Temp Stats Airport Information Weather charts Add Link Nearby VenuesMetar ALERT Operation Metar Decoded Social comments